createdAt,value
2019-05-29T00:00:45.574Z,14.01
2019-05-29T00:05:51.441Z,14.51
2019-05-29T00:10:57.412Z,14.37
2019-05-29T00:16:03.108Z,13.04
2019-05-29T00:21:08.846Z,13.17
2019-05-29T00:26:14.677Z,13.38
2019-05-29T00:31:22.655Z,13.13
2019-05-29T00:36:28.174Z,13.21
2019-05-29T00:41:33.731Z,12.75
2019-05-29T00:46:39.297Z,12.49
2019-05-29T00:51:44.758Z,12.54
2019-05-29T00:56:51.489Z,12.48
2019-05-29T01:01:57.125Z,12.89
2019-05-29T01:07:03.022Z,12.56
2019-05-29T01:12:08.675Z,12.59
2019-05-29T01:17:15.571Z,12.68
2019-05-29T01:22:22.332Z,12.50
2019-05-29T01:27:27.984Z,12.83
2019-05-29T01:32:34.539Z,12.96
2019-05-29T01:37:40.064Z,12.19
2019-05-29T01:42:45.809Z,12.40
2019-05-29T01:47:51.252Z,12.67
2019-05-29T01:52:57.100Z,12.94
2019-05-29T01:58:02.668Z,12.90
2019-05-29T02:03:08.678Z,12.69
2019-05-29T02:08:14.284Z,12.51
2019-05-29T02:13:19.817Z,12.61
2019-05-29T02:18:25.329Z,12.62
2019-05-29T02:23:30.844Z,12.85
2019-05-29T02:28:36.326Z,12.96
2019-05-29T02:33:41.868Z,12.89
2019-05-29T02:38:47.467Z,12.91
2019-05-29T02:43:52.942Z,13.03
2019-05-29T02:48:58.468Z,12.67
2019-05-29T02:54:04.333Z,12.91
2019-05-29T02:59:10.652Z,12.56
2019-05-29T03:04:16.689Z,12.91
2019-05-29T03:09:24.259Z,12.90
2019-05-29T03:14:31.604Z,12.63
2019-05-29T03:19:37.139Z,12.67
2019-05-29T03:24:42.598Z,12.46
2019-05-29T03:29:48.050Z,12.18
2019-05-29T03:34:53.589Z,12.24
2019-05-29T03:39:59.165Z,11.51
2019-05-29T03:45:07.177Z,11.96
2019-05-29T03:50:15.635Z,12.22
2019-05-29T03:55:20.275Z,12.40
2019-05-29T04:00:29.976Z,11.92
2019-05-29T04:05:37.734Z,12.12
2019-05-29T04:10:43.045Z,11.60
2019-05-29T04:15:49.333Z,12.20
2019-05-29T04:20:55.565Z,11.86
2019-05-29T04:26:02.074Z,11.87
2019-05-29T04:31:07.976Z,11.48
2019-05-29T04:36:13.932Z,11.28
2019-05-29T04:41:19.585Z,11.16
2019-05-29T04:46:25.812Z,11.46
2019-05-29T04:51:33.010Z,11.26
2019-05-29T04:56:39.149Z,11.37
2019-05-29T05:01:44.877Z,11.83
2019-05-29T05:06:50.527Z,11.95
2019-05-29T05:11:56.695Z,12.47
2019-05-29T05:17:02.619Z,12.49
2019-05-29T05:22:08.188Z,12.55
2019-05-29T05:27:13.681Z,12.77
2019-05-29T05:32:19.244Z,12.04
2019-05-29T05:37:24.686Z,12.32
2019-05-29T05:42:31.063Z,12.01
2019-05-29T05:47:49.955Z,12.16
2019-05-29T05:52:43.799Z,12.54
2019-05-29T05:57:49.238Z,12.14
2019-05-29T06:02:54.801Z,11.01
2019-05-29T06:08:00.747Z,11.55
2019-05-29T06:13:06.577Z,12.02
2019-05-29T06:18:21.119Z,12.46
2019-05-29T06:23:19.392Z,11.68
2019-05-29T06:28:24.905Z,11.61
2019-05-29T06:33:30.992Z,12.02
2019-05-29T06:38:37.626Z,11.69
2019-05-29T06:43:44.303Z,12.44
2019-05-29T06:48:59.453Z,12.86
2019-05-29T06:53:57.545Z,12.65
2019-05-29T06:59:03.130Z,13.23
2019-05-29T07:04:12.194Z,12.63
2019-05-29T07:09:16.392Z,13.17
2019-05-29T07:14:21.974Z,12.89
2019-05-29T07:19:47.039Z,13.24
2019-05-29T07:24:34.663Z,12.97
2019-05-29T07:29:41.122Z,12.95
2019-05-29T07:34:58.160Z,12.73
2019-05-29T07:39:54.143Z,13.14
2019-05-29T07:44:59.674Z,13.18
2019-05-29T07:50:07.406Z,13.49
2019-05-29T07:55:14.671Z,13.58
2019-05-29T08:00:20.317Z,13.91
2019-05-29T08:05:25.916Z,13.28
2019-05-29T08:10:34.044Z,12.91
2019-05-29T08:15:54.945Z,12.54
2019-05-29T08:20:48.068Z,12.64
2019-05-29T08:25:53.762Z,13.39
2019-05-29T08:30:59.296Z,12.97
2019-05-29T08:36:05.139Z,13.35
2019-05-29T08:41:11.872Z,14.18
2019-05-29T08:46:17.455Z,13.79
2019-05-29T08:51:23.029Z,14.17
2019-05-29T08:56:28.843Z,13.66
2019-05-29T09:01:34.301Z,14.06
2019-05-29T09:06:40.135Z,14.05
2019-05-29T09:11:47.575Z,14.26
2019-05-29T09:16:53.320Z,14.55
2019-05-29T09:21:59.071Z,14.27
2019-05-29T09:27:05.062Z,14.40
2019-05-29T09:32:10.777Z,15.00
2019-05-29T09:37:17.340Z,16.80
2019-05-29T09:42:23.761Z,14.97
2019-05-29T09:47:29.445Z,14.72
2019-05-29T09:52:35.196Z,15.47
2019-05-29T09:57:40.686Z,14.38
2019-05-29T10:02:46.157Z,16.53
2019-05-29T10:07:51.685Z,16.09
2019-05-29T10:12:58.377Z,16.50
2019-05-29T10:18:08.294Z,14.87
2019-05-29T10:23:11.655Z,13.94
2019-05-29T10:28:17.165Z,13.97
2019-05-29T10:33:22.808Z,13.62
2019-05-29T10:38:28.329Z,13.56
2019-05-29T10:43:34.997Z,14.32
2019-05-29T10:48:40.748Z,14.30
2019-05-29T10:53:47.049Z,14.69
2019-05-29T10:58:58.980Z,15.26
2019-05-29T11:04:00.642Z,15.44
2019-05-29T11:09:07.376Z,15.74
2019-05-29T11:14:13.552Z,16.58
2019-05-29T11:19:19.033Z,16.36
2019-05-29T11:24:25.572Z,15.80
2019-05-29T11:29:31.314Z,15.46
2019-05-29T11:34:38.144Z,15.61
2019-05-29T11:39:43.590Z,15.67
2019-05-29T11:44:49.168Z,16.98
2019-05-29T11:49:55.137Z,16.79
2019-05-29T11:55:04.491Z,17.18
2019-05-29T12:00:19.797Z,16.88
2019-05-29T12:05:19.828Z,17.15
2019-05-29T12:10:25.363Z,16.53
2019-05-29T12:15:33.447Z,17.13
2019-05-29T12:20:38.900Z,16.96
2019-05-29T12:25:44.493Z,17.28
2019-05-29T12:30:50.661Z,18.18
2019-05-29T12:35:57.392Z,17.61
2019-05-29T12:41:03.837Z,17.31
2019-05-29T12:46:09.550Z,15.70
2019-05-29T12:51:15.143Z,17.09
2019-05-29T12:56:20.765Z,17.74
2019-05-29T13:01:26.317Z,18.45
2019-05-29T13:06:31.886Z,19.07
2019-05-29T13:11:37.437Z,17.51
2019-05-29T13:16:44.409Z,17.02
2019-05-29T13:21:50.974Z,18.57
2019-05-29T13:26:57.600Z,18.06
2019-05-29T13:32:05.220Z,17.77
2019-05-29T13:37:10.571Z,17.09
2019-05-29T13:42:16.331Z,16.22
2019-05-29T13:47:21.841Z,17.36
2019-05-29T13:52:27.380Z,16.91
2019-05-29T13:57:32.968Z,16.51
2019-05-29T14:02:38.509Z,16.46
2019-05-29T14:07:45.504Z,16.67
2019-05-29T14:12:51.562Z,17.01
2019-05-29T14:18:00.589Z,17.80
2019-05-29T14:23:09.593Z,17.31
2019-05-29T14:28:15.467Z,17.51
2019-05-29T14:33:20.990Z,17.96
2019-05-29T14:38:26.908Z,17.40
2019-05-29T14:43:32.599Z,19.13
2019-05-29T14:48:38.218Z,18.63
2019-05-29T14:53:43.839Z,17.24
2019-05-29T14:58:49.332Z,17.02
2019-05-29T15:03:54.770Z,17.97
2019-05-29T15:09:00.346Z,16.69
2019-05-29T15:14:06.591Z,17.21
2019-05-29T15:19:13.330Z,18.69
2019-05-29T15:24:19.032Z,18.29
2019-05-29T15:29:25.596Z,18.33
2019-05-29T15:34:31.133Z,17.26
2019-05-29T15:39:36.789Z,18.63
2019-05-29T15:45:41.895Z,17.92
2019-05-29T15:50:47.555Z,18.31
2019-05-29T15:55:53.169Z,17.75
2019-05-29T16:00:58.694Z,18.02
2019-05-29T16:06:04.622Z,17.33
2019-05-29T16:11:10.602Z,17.68
2019-05-29T16:16:17.323Z,17.97
2019-05-29T16:21:24.395Z,17.84
2019-05-29T16:26:29.956Z,17.81
2019-05-29T16:31:35.550Z,17.86
2019-05-29T16:36:41.196Z,17.53
2019-05-29T16:41:46.718Z,17.55
2019-05-29T16:46:52.420Z,17.36
2019-05-29T16:51:58.128Z,17.70
2019-05-29T16:57:03.959Z,17.54
2019-05-29T17:02:10.405Z,17.33
2019-05-29T17:07:16.484Z,17.44
2019-05-29T17:12:22.576Z,17.55
2019-05-29T17:17:30.531Z,17.17
2019-05-29T17:22:37.847Z,17.12
2019-05-29T17:27:44.023Z,16.87
2019-05-29T17:32:51.347Z,17.03
2019-05-29T17:37:56.978Z,17.10
2019-05-29T17:43:05.536Z,16.70
2019-05-29T17:48:11.368Z,16.30
2019-05-29T17:53:17.856Z,16.26
2019-05-29T17:58:25.036Z,16.36
2019-05-29T18:03:31.437Z,16.20
2019-05-29T18:08:37.201Z,16.30
2019-05-29T18:13:43.169Z,15.96
2019-05-29T18:18:50.360Z,16.64
2019-05-29T18:23:58.323Z,16.54
2019-05-29T18:29:05.357Z,16.42
2019-05-29T18:34:11.348Z,16.64
2019-05-29T18:39:20.144Z,16.63
2019-05-29T18:44:28.938Z,16.73
2019-05-29T18:49:34.953Z,16.78
2019-05-29T18:54:40.935Z,16.58
2019-05-29T18:59:48.994Z,16.51
2019-05-29T19:04:56.570Z,16.48
2019-05-29T19:10:06.198Z,16.28
2019-05-29T19:15:12.459Z,16.33
2019-05-29T19:20:22.127Z,16.22
2019-05-29T19:25:33.065Z,16.00
2019-05-29T19:30:38.743Z,15.77
2019-05-29T19:35:45.003Z,15.57
2019-05-29T19:40:52.041Z,15.71
2019-05-29T19:46:00.175Z,15.30
2019-05-29T19:51:10.346Z,15.03
2019-05-29T19:56:18.268Z,14.93
2019-05-29T20:01:32.185Z,14.91
2019-05-29T20:12:56.144Z,14.40
2019-05-29T20:18:05.076Z,14.34
2019-05-29T20:23:12.194Z,14.11
2019-05-29T20:28:18.867Z,13.93
2019-05-29T20:33:24.607Z,13.75
2019-05-29T20:38:33.157Z,13.79
2019-05-29T20:43:39.749Z,13.90
2019-05-29T20:48:45.636Z,13.62
2019-05-29T20:53:53.553Z,13.25
2019-05-29T20:59:00.765Z,13.40
2019-05-29T21:04:07.116Z,13.58
2019-05-29T21:09:13.067Z,13.28
2019-05-29T21:14:18.730Z,13.27
2019-05-29T21:19:24.278Z,12.97
2019-05-29T21:24:29.861Z,13.07
2019-05-29T21:29:35.684Z,12.75
2019-05-29T21:34:41.916Z,12.77
2019-05-29T21:39:47.725Z,12.64
2019-05-29T21:44:53.292Z,12.33
2019-05-29T21:49:58.764Z,12.56
2019-05-29T21:55:04.889Z,12.48
2019-05-29T22:00:14.055Z,12.32
2019-05-29T22:05:21.158Z,12.20
2019-05-29T22:10:27.917Z,12.25
2019-05-29T22:15:33.471Z,12.46
2019-05-29T22:20:39.016Z,12.14
2019-05-29T22:25:44.601Z,11.86
2019-05-29T22:30:51.243Z,11.74
2019-05-29T22:35:57.510Z,11.92
2019-05-29T22:41:03.057Z,11.79
2019-05-29T22:46:08.650Z,11.46
2019-05-29T22:51:14.201Z,11.53
2019-05-29T22:56:19.821Z,11.49
2019-05-29T23:01:25.416Z,11.54
2019-05-29T23:06:30.967Z,11.20
2019-05-29T23:11:36.985Z,10.81
2019-05-29T23:16:42.570Z,11.01
2019-05-29T23:21:48.155Z,10.93
2019-05-29T23:26:54.900Z,10.88
2019-05-29T23:32:03.148Z,10.89
2019-05-29T23:37:13.594Z,10.85
2019-05-29T23:42:17.763Z,10.70
2019-05-29T23:47:23.875Z,10.53
2019-05-29T23:52:30.641Z,10.49
2019-05-29T23:57:36.151Z,10.66
